Terminal Aerodrome Forecast
Issued by NWS Wilmington, OH

Current Version | Previous Version | Graphics & Text | Print | Product List | Glossary On
Versions: 1 2 3 4 5 6 7 8 9 10 11 12 13 14 15 16 17 18 19 20 21 22 23 24 25 26 27 28
000
FTUS41 KILN 171726
TAFCVG
TAF
KCVG 171726Z 1718/1824 06010KT P6SM VCSH BKN040
      TEMPO 1719/1723 4SM -TSRA BR OVC025CB
     FM180000 06010KT P6SM VCSH BKN050
     FM180600 05011KT P6SM OVC020
     FM180900 07010KT P6SM OVC012
      TEMPO 1811/1815 OVC008
     FM181600 07009KT P6SM BKN018
     FM181800 09010KT P6SM VCTS BKN025CB=

USA.gov is the U.S. government's official web portal to all federal, state and local government web resources and services.